Time;durP1;ratioP1;P1;durP2;ratioP2;P2;SDS_P1;SDS_P2;PMS_P1;PMS_P2;Temp;Humidity;BMP_temperature;BMP_pressure;BME280_temperature;BME280_humidity;BME280_pressure;Samples;Min_cycle;Max_cycle;Signal;HPM_P1;HPM_P2
2023/10/17 00:01:54;;;;;;;14.70;7.90;;;7.50;99.90;;;;;;5055154;28;20006;-62
2023/10/17 00:06:46;;;;;;;11.27;7.65;;;7.50;99.90;;;;;;5072637;28;20075;-62
2023/10/17 00:09:21;;;;;;;10.43;7.35;;;7.60;99.90;;;;;;5073230;28;20390;-61
2023/10/17 00:14:22;;;;;;;10.18;7.30;;;7.60;99.90;;;;;;5069764;28;20390;-62
2023/10/17 00:16:47;;;;;;;13.05;8.57;;;7.70;99.90;;;;;;5051716;28;20607;-61
2023/10/17 00:19:16;;;;;;;12.10;8.07;;;7.70;99.90;;;;;;5053743;28;20037;-61
2023/10/17 00:21:42;;;;;;;13.45;8.07;;;7.70;99.90;;;;;;5053560;28;20509;-62
2023/10/17 00:24:09;;;;;;;13.80;7.82;;;7.70;99.90;;;;;;5052917;28;20454;-62
2023/10/17 00:26:37;;;;;;;10.35;7.50;;;7.70;99.90;;;;;;5038577;28;20040;-62
2023/10/17 00:29:05;;;;;;;11.63;7.32;;;7.80;99.90;;;;;;5072956;28;20040;-62
2023/10/17 00:31:31;;;;;;;11.15;7.75;;;7.80;99.90;;;;;;5071760;28;20105;-62
2023/10/17 00:33:57;;;;;;;10.80;8.55;;;7.80;99.90;;;;;;5072347;28;20044;-62
2023/10/17 00:36:27;;;;;;;10.98;7.57;;;7.80;99.90;;;;;;5070901;28;20116;-61
2023/10/17 00:39:11;;;;;;;11.23;8.38;;;7.80;99.90;;;;;;5072281;28;20120;-62
2023/10/17 00:42:09;;;;;;;11.93;9.15;;;7.90;99.90;;;;;;5072002;28;20125;-61
2023/10/17 00:44:39;;;;;;;13.77;8.98;;;7.80;99.90;;;;;;5052360;28;20041;-62
2023/10/17 00:47:11;;;;;;;12.00;8.23;;;7.80;99.90;;;;;;5069852;28;20125;-62
2023/10/17 00:49:42;;;;;;;12.38;7.60;;;7.90;99.90;;;;;;5051867;28;20497;-61
2023/10/17 00:52:17;;;;;;;11.77;7.97;;;8.00;99.90;;;;;;5051968;28;20060;-61
2023/10/17 00:54:45;;;;;;;10.65;7.10;;;8.00;99.90;;;;;;5051863;28;20098;-61
2023/10/17 00:57:13;;;;;;;10.50;7.03;;;8.00;99.90;;;;;;5051905;28;20482;-61
2023/10/17 00:59:44;;;;;;;9.68;6.70;;;8.00;99.90;;;;;;5051582;28;20072;-61
2023/10/17 01:02:10;;;;;;;9.98;6.97;;;8.00;99.90;;;;;;5051611;28;20091;-61
2023/10/17 01:04:40;;;;;;;12.18;8.02;;;8.00;99.90;;;;;;5049726;28;20045;-61
2023/10/17 01:07:07;;;;;;;10.95;7.68;;;8.00;99.90;;;;;;5051568;28;20055;-62
2023/10/17 01:09:34;;;;;;;11.20;7.90;;;8.00;99.90;;;;;;5051269;28;20394;-62
2023/10/17 01:12:10;;;;;;;10.57;7.65;;;8.00;99.90;;;;;;5083914;28;20045;-62
2023/10/17 01:14:37;;;;;;;12.50;6.78;;;8.00;99.90;;;;;;5068265;28;20120;-62
2023/10/17 01:17:15;;;;;;;11.55;7.65;;;8.00;99.90;;;;;;5051815;28;20044;-61
2023/10/17 01:19:41;;;;;;;11.30;7.53;;;8.00;99.90;;;;;;5050352;28;20052;-62
2023/10/17 01:22:06;;;;;;;9.13;6.78;;;7.90;99.90;;;;;;5052305;28;20041;-62
2023/10/17 01:24:32;;;;;;;11.68;7.82;;;7.90;99.90;;;;;;5051010;28;20106;-62
2023/10/17 01:26:59;;;;;;;12.20;8.38;;;7.80;99.90;;;;;;5042434;28;20047;-62
2023/10/17 01:29:25;;;;;;;9.52;6.93;;;7.80;99.90;;;;;;5054374;28;20178;-62
2023/10/17 01:31:51;;;;;;;10.55;7.30;;;7.80;99.90;;;;;;5070791;28;20135;-62
2023/10/17 01:34:18;;;;;;;10.02;6.55;;;7.80;99.90;;;;;;5066691;28;20040;-62
2023/10/17 01:36:43;;;;;;;11.02;6.38;;;7.70;99.90;;;;;;5062898;28;20032;-62
2023/10/17 01:39:09;;;;;;;9.68;6.50;;;7.70;99.90;;;;;;5071118;28;20037;-62
2023/10/17 01:41:38;;;;;;;11.77;6.93;;;7.70;99.90;;;;;;5070362;28;20520;-62
2023/10/17 01:44:04;;;;;;;11.88;6.18;;;7.70;99.90;;;;;;5071083;28;20085;-62
2023/10/17 01:46:30;;;;;;;9.38;6.38;;;7.60;99.90;;;;;;5069294;28;20050;-62
2023/10/17 01:49:10;;;;;;;10.60;6.00;;;7.60;99.90;;;;;;5071078;28;20037;-61
2023/10/17 01:51:36;;;;;;;8.95;5.85;;;7.50;99.90;;;;;;5072076;28;20049;-62
2023/10/17 01:54:08;;;;;;;9.32;5.32;;;7.50;99.90;;;;;;5070195;28;20401;-62
2023/10/17 01:56:38;;;;;;;11.85;7.88;;;7.40;99.90;;;;;;5070483;28;20094;-62
2023/10/17 01:59:17;;;;;;;11.85;6.45;;;7.40;99.90;;;;;;5070248;28;20044;-63
2023/10/17 02:01:43;;;;;;;9.82;5.85;;;7.30;99.90;;;;;;5070117;28;20123;-62
2023/10/17 02:04:18;;;;;;;14.00;6.95;;;7.30;99.90;;;;;;5071994;28;20432;-62
2023/10/17 02:06:46;;;;;;;9.40;6.10;;;7.30;99.90;;;;;;5054319;28;20102;-62
2023/10/17 02:09:25;;;;;;;15.25;6.85;;;7.30;99.90;;;;;;5033369;28;20052;-62
2023/10/17 02:12:00;;;;;;;10.80;6.70;;;7.20;99.90;;;;;;5051888;28;20040;-62
2023/10/17 02:14:27;;;;;;;10.48;4.85;;;7.10;99.90;;;;;;5050168;28;20052;-62
2023/10/17 02:16:55;;;;;;;13.68;5.20;;;7.10;99.90;;;;;;5050893;28;20040;-62
2023/10/17 02:19:25;;;;;;;10.68;6.03;;;7.10;99.90;;;;;;5050775;28;20111;-62
2023/10/17 02:21:52;;;;;;;8.52;5.18;;;7.10;99.90;;;;;;5050000;28;20029;-62
2023/10/17 02:24:21;;;;;;;10.10;5.20;;;7.00;99.90;;;;;;5034057;28;20481;-62
2023/10/17 02:29:39;;;;;;;13.10;5.18;;;6.90;99.90;;;;;;5069220;28;20040;-62
2023/10/17 02:32:18;;;;;;;13.50;5.82;;;6.80;99.90;;;;;;5070043;28;20044;-61
2023/10/17 02:34:47;;;;;;;11.02;5.97;;;6.80;99.90;;;;;;5071567;28;20048;-62
2023/10/17 02:37:16;;;;;;;8.88;5.03;;;6.80;99.90;;;;;;5036981;28;20041;-62
2023/10/17 02:39:42;;;;;;;8.40;5.45;;;6.80;99.90;;;;;;5050200;28;20045;-62
2023/10/17 02:42:08;;;;;;;10.77;5.38;;;6.80;99.90;;;;;;5051620;28;20068;-62
2023/10/17 02:44:34;;;;;;;16.13;5.75;;;6.80;99.90;;;;;;5049471;28;20120;-61
2023/10/17 02:47:01;;;;;;;11.48;5.82;;;6.70;99.90;;;;;;5050814;28;20061;-62
2023/10/17 02:49:28;;;;;;;10.77;5.97;;;6.80;99.90;;;;;;5033596;28;20045;-62
2023/10/17 02:51:54;;;;;;;9.05;5.40;;;6.70;99.90;;;;;;5049342;28;20498;-61
2023/10/17 02:54:27;;;;;;;11.98;6.00;;;6.70;99.90;;;;;;5050104;28;20045;-62
2023/10/17 02:56:53;;;;;;;10.68;4.95;;;6.60;99.90;;;;;;5049846;28;20485;-62
2023/10/17 02:59:21;;;;;;;11.77;5.90;;;6.60;99.90;;;;;;5033651;28;20075;-62
2023/10/17 03:01:53;;;;;;;10.38;5.32;;;6.60;99.90;;;;;;5050872;28;20052;-62
2023/10/17 03:04:23;;;;;;;10.50;5.32;;;6.50;99.90;;;;;;5070508;28;20138;-62
2023/10/17 03:06:53;;;;;;;7.22;4.03;;;6.40;99.90;;;;;;5058240;28;20440;-62
2023/10/17 03:12:06;;;;;;;6.85;4.63;;;6.30;99.90;;;;;;5052895;28;20051;-62
2023/10/17 03:15:16;;;;;;;7.18;4.25;;;6.30;99.90;;;;;;5053729;28;20053;-61
2023/10/17 03:17:27;;;;;;;11.63;5.35;;;6.30;99.90;;;;;;5053646;28;20634;-62
2023/10/17 03:19:53;;;;;;;8.70;4.95;;;6.30;99.90;;;;;;5054133;28;20040;-62
2023/10/17 03:22:19;;;;;;;12.48;5.93;;;6.30;99.90;;;;;;5053465;28;20056;-62
2023/10/17 03:24:51;;;;;;;13.90;7.93;;;6.30;99.90;;;;;;5053795;28;20060;-62
2023/10/17 03:27:34;;;;;;;17.13;10.40;;;6.40;99.90;;;;;;5056048;28;20044;-62
2023/10/17 03:30:05;;;;;;;17.00;10.02;;;6.40;99.90;;;;;;5073773;28;20053;-62
2023/10/17 03:32:33;;;;;;;10.43;6.47;;;6.40;99.90;;;;;;5071946;28;20041;-62
2023/10/17 03:34:59;;;;;;;13.10;6.80;;;6.40;99.90;;;;;;5073746;28;20049;-62
2023/10/17 03:37:28;;;;;;;8.57;5.28;;;6.50;99.90;;;;;;5068210;28;20127;-62
2023/10/17 03:39:56;;;;;;;9.95;5.20;;;6.50;99.90;;;;;;5072088;28;20111;-62
2023/10/17 03:43:00;;;;;;;9.10;5.53;;;6.60;99.90;;;;;;5073565;28;20071;-62
2023/10/17 03:48:13;;;;;;;11.48;5.80;;;6.60;99.90;;;;;;5043194;28;20090;-62
2023/10/17 03:53:15;;;;;;;8.68;4.30;;;6.70;99.90;;;;;;5085701;28;20179;-62
2023/10/17 03:55:43;;;;;;;8.05;4.85;;;6.70;99.90;;;;;;5053985;28;20103;-62
2023/10/17 03:58:24;;;;;;;12.48;8.65;;;6.80;99.90;;;;;;5073417;28;20039;-62
2023/10/17 04:00:55;;;;;;;11.48;10.23;;;6.80;99.90;;;;;;5072233;28;20076;-62
2023/10/17 04:03:22;;;;;;;10.52;8.60;;;6.80;99.90;;;;;;5074069;28;20083;-62
2023/10/17 04:05:50;;;;;;;8.88;7.05;;;6.90;99.90;;;;;;5068239;28;20490;-63
2023/10/17 04:08:26;;;;;;;10.32;6.82;;;6.90;99.90;;;;;;5051920;28;20049;-62
2023/10/17 04:11:37;;;;;;;10.25;6.45;;;6.80;99.90;;;;;;5052623;28;20049;-62
2023/10/17 04:13:38;;;;;;;10.85;6.72;;;6.90;99.90;;;;;;5042156;28;20056;-62
2023/10/17 04:16:16;;;;;;;12.10;7.38;;;6.90;99.90;;;;;;5058483;28;20033;-62
2023/10/17 04:18:45;;;;;;;9.38;6.25;;;6.90;99.90;;;;;;5072512;28;20078;-62
2023/10/17 04:23:52;;;;;;;9.38;6.45;;;6.90;99.90;;;;;;5071960;28;20044;-62
2023/10/17 04:26:18;;;;;;;9.52;6.60;;;6.90;99.90;;;;;;5047343;28;20051;-62
2023/10/17 04:28:50;;;;;;;7.93;5.93;;;6.80;99.90;;;;;;5051534;28;20460;-62
2023/10/17 04:31:25;;;;;;;8.57;6.22;;;6.80;99.90;;;;;;5052435;28;20120;-62
2023/10/17 04:34:06;;;;;;;9.82;7.13;;;6.80;99.90;;;;;;5052858;28;20048;-62
2023/10/17 04:36:39;;;;;;;11.85;7.40;;;6.70;99.90;;;;;;5061573;28;20040;-62
2023/10/17 04:39:57;;;;;;;13.10;9.30;;;6.70;99.90;;;;;;5052540;28;20433;-62
2023/10/17 04:44:25;;;;;;;9.98;8.45;;;6.60;99.90;;;;;;5057736;28;20051;-62
2023/10/17 04:49:35;;;;;;;11.15;7.45;;;6.60;99.90;;;;;;5060593;28;20049;-62
2023/10/17 04:52:18;;;;;;;10.85;7.30;;;6.60;99.90;;;;;;5071904;28;20048;-62
2023/10/17 04:54:44;;;;;;;10.43;6.53;;;6.60;99.90;;;;;;5072064;28;20052;-62
2023/10/17 04:57:15;;;;;;;9.07;7.28;;;6.50;99.90;;;;;;5072389;28;20393;-62
2023/10/17 05:07:34;;;;;;;11.15;6.75;;;6.40;99.90;;;;;;5062906;28;20048;-62
2023/10/17 06:18:51;;;;;;;12.15;7.50;;;5.90;99.90;;;;;;5070467;28;20049;-62
2023/10/17 06:21:19;;;;;;;9.60;6.40;;;5.90;99.90;;;;;;5069759;28;20486;-61
2023/10/17 06:34:20;;;;;;;10.27;6.70;;;5.70;99.90;;;;;;5050341;28;20045;-61
2023/10/17 06:36:58;;;;;;;11.75;6.68;;;5.70;99.90;;;;;;5050407;28;20037;-62
2023/10/17 06:39:24;;;;;;;12.77;6.47;;;5.70;99.90;;;;;;5066671;28;20043;-61
2023/10/17 06:42:00;;;;;;;10.07;5.45;;;5.80;99.90;;;;;;5048298;28;20393;-62
2023/10/17 06:44:30;;;;;;;9.20;5.13;;;5.80;99.90;;;;;;5071233;28;20245;-65
2023/10/17 06:46:57;;;;;;;9.80;6.05;;;5.80;99.90;;;;;;5054153;28;20494;-66
2023/10/17 06:49:46;;;;;;;10.85;5.18;;;5.80;99.90;;;;;;5072531;28;20536;-66
2023/10/17 06:54:41;;;;;;;9.38;5.20;;;5.80;99.90;;;;;;5053640;28;20095;-66
2023/10/17 06:57:20;;;;;;;7.63;5.10;;;5.80;99.90;;;;;;5052545;28;20463;-66
2023/10/17 06:59:54;;;;;;;8.98;3.92;;;5.90;99.90;;;;;;5048723;28;20044;-66
2023/10/17 07:02:41;;;;;;;8.93;4.28;;;5.90;99.90;;;;;;5035760;28;20053;-66
2023/10/17 07:05:08;;;;;;;11.13;4.68;;;5.80;99.90;;;;;;5054861;28;20063;-66
2023/10/17 07:07:44;;;;;;;8.23;3.95;;;5.90;99.90;;;;;;5058371;28;20041;-66
2023/10/17 07:10:16;;;;;;;6.78;4.22;;;5.90;99.90;;;;;;5051042;28;20041;-66
2023/10/17 07:12:50;;;;;;;8.10;4.40;;;6.00;99.90;;;;;;5051421;28;20073;-66
2023/10/17 07:15:19;;;;;;;7.70;4.72;;;6.10;99.90;;;;;;5035416;28;20056;-66
2023/10/17 07:23:19;;;;;;;10.43;5.10;;;6.10;99.90;;;;;;5050098;28;20047;-66
2023/10/17 07:25:49;;;;;;;9.02;4.70;;;6.20;99.90;;;;;;5051570;28;20107;-66
2023/10/17 07:28:15;;;;;;;8.65;4.15;;;6.20;99.90;;;;;;5050780;28;20826;-66
2023/10/17 07:30:57;;;;;;;7.68;4.07;;;6.30;99.90;;;;;;5050870;28;20124;-66
2023/10/17 07:33:23;;;;;;;7.40;4.22;;;6.40;99.90;;;;;;5050602;28;20047;-67
2023/10/17 07:35:56;;;;;;;7.10;4.68;;;6.50;99.90;;;;;;5050618;28;20044;-67
2023/10/17 07:38:27;;;;;;;9.05;4.88;;;6.50;99.90;;;;;;5050182;28;20037;-67
2023/10/17 07:41:09;;;;;;;7.88;4.25;;;6.60;99.90;;;;;;5049398;28;20099;-67
2023/10/17 07:43:35;;;;;;;7.35;4.03;;;6.70;99.90;;;;;;5050181;28;20049;-66
2023/10/17 07:46:07;;;;;;;8.45;3.80;;;6.80;99.90;;;;;;5033655;28;20045;-66
2023/10/17 07:48:34;;;;;;;5.68;3.55;;;6.90;99.90;;;;;;5033905;28;20045;-67
2023/10/17 07:51:00;;;;;;;9.82;4.38;;;7.00;99.90;;;;;;5053836;28;20540;-67
2023/10/17 07:53:32;;;;;;;9.20;4.03;;;7.10;99.90;;;;;;5055064;28;20175;-66
2023/10/17 07:56:12;;;;;;;7.80;3.10;;;7.20;99.90;;;;;;5063272;28;20045;-66
2023/10/17 07:58:45;;;;;;;6.72;3.50;;;7.20;99.90;;;;;;5058899;28;20045;-67
2023/10/17 08:01:15;;;;;;;8.60;2.83;;;7.30;99.90;;;;;;5069549;28;20036;-66
2023/10/17 08:03:45;;;;;;;5.00;2.30;;;7.40;99.90;;;;;;5056923;28;20568;-67
2023/10/17 08:06:12;;;;;;;7.60;2.50;;;7.50;99.90;;;;;;5062997;28;20093;-66
2023/10/17 08:08:43;;;;;;;6.43;2.20;;;7.60;99.90;;;;;;5050725;28;20381;-67
2023/10/17 08:11:27;;;;;;;7.28;3.25;;;7.70;99.90;;;;;;5059551;28;20083;-67
2023/10/17 08:14:06;;;;;;;15.48;6.82;;;7.80;99.90;;;;;;5047788;28;20049;-67
2023/10/17 08:16:32;;;;;;;6.60;2.70;;;7.90;99.90;;;;;;5077889;28;20041;-67
2023/10/17 08:18:58;;;;;;;7.00;2.72;;;8.00;99.90;;;;;;5053467;28;20367;-66
2023/10/17 08:21:35;;;;;;;8.38;3.03;;;8.10;99.90;;;;;;5060305;28;20123;-65
2023/10/17 08:24:02;;;;;;;36.38;18.95;;;8.10;99.90;;;;;;5066553;28;20405;-66
2023/10/17 08:26:33;;;;;;;35.20;18.30;;;8.20;99.90;;;;;;5065090;28;20052;-66
2023/10/17 08:29:00;;;;;;;12.90;5.50;;;8.30;99.90;;;;;;5060998;28;20127;-67
2023/10/17 08:31:35;;;;;;;6.68;3.17;;;8.40;99.90;;;;;;5049210;28;20051;-67
2023/10/17 08:36:41;;;;;;;8.45;2.80;;;8.60;99.90;;;;;;5052144;28;20057;-67
2023/10/17 08:41:57;;;;;;;16.13;7.68;;;8.70;99.90;;;;;;5066314;28;20048;-67
2023/10/17 08:44:28;;;;;;;9.57;5.38;;;8.80;99.90;;;;;;5039337;28;20143;-67
2023/10/17 08:46:55;;;;;;;19.48;9.57;;;8.90;99.90;;;;;;5049147;28;20047;-67
2023/10/17 08:49:21;;;;;;;9.75;4.60;;;9.00;99.90;;;;;;5053840;28;20076;-67
2023/10/17 08:51:50;;;;;;;9.65;4.55;;;9.00;99.90;;;;;;5044907;28;20249;-66
2023/10/17 08:54:19;;;;;;;10.05;3.85;;;9.10;99.90;;;;;;5052735;28;20045;-67
2023/10/17 08:56:47;;;;;;;9.35;4.25;;;9.20;99.90;;;;;;5070879;28;20039;-67
2023/10/17 09:00:23;;;;;;;8.40;5.85;;;9.20;99.90;;;;;;5045052;28;20044;-66
2023/10/17 09:02:02;;;;;;;7.78;2.47;;;9.30;99.90;;;;;;5028357;28;20043;-65
2023/10/17 09:04:32;;;;;;;7.57;2.22;;;9.40;99.90;;;;;;5061940;28;20136;-65
2023/10/17 09:07:32;;;;;;;6.53;2.40;;;9.40;99.90;;;;;;5033072;28;20103;-61
2023/10/17 09:10:15;;;;;;;4.15;1.95;;;9.50;99.90;;;;;;5030926;28;20041;-61
2023/10/17 09:13:14;;;;;;;3.78;1.77;;;9.50;99.90;;;;;;5064607;28;20482;-61
2023/10/17 09:15:30;;;;;;;6.35;3.78;;;9.50;99.90;;;;;;5031599;28;20052;-61
2023/10/17 09:18:09;;;;;;;8.60;2.15;;;9.60;99.90;;;;;;5031085;28;20120;-61
2023/10/17 09:20:35;;;;;;;7.15;1.83;;;9.70;99.90;;;;;;5032713;28;20123;-61
2023/10/17 09:23:01;;;;;;;4.20;1.88;;;9.70;99.90;;;;;;5031815;28;20045;-61
2023/10/17 09:25:30;;;;;;;4.68;1.65;;;9.80;99.90;;;;;;5030486;28;20111;-61
2023/10/17 09:27:57;;;;;;;5.53;1.92;;;9.80;99.90;;;;;;5064813;28;20045;-61
2023/10/17 09:30:26;;;;;;;10.05;1.98;;;9.90;99.90;;;;;;5064490;28;20052;-61
2023/10/17 09:32:52;;;;;;;5.10;1.60;;;9.90;99.90;;;;;;5030505;28;20083;-61
2023/10/17 09:35:22;;;;;;;5.82;1.63;;;10.00;99.90;;;;;;5031182;28;20045;-61
2023/10/17 09:37:56;;;;;;;6.32;1.85;;;10.10;99.90;;;;;;5030388;28;20057;-61
2023/10/17 09:40:27;;;;;;;6.78;2.22;;;10.10;99.90;;;;;;5031437;28;20048;-61
2023/10/17 09:42:53;;;;;;;7.13;2.90;;;10.10;99.90;;;;;;5031422;28;20052;-61
2023/10/17 09:45:20;;;;;;;5.47;1.85;;;10.10;99.90;;;;;;5031486;28;20459;-61
2023/10/17 09:47:57;;;;;;;5.15;1.95;;;10.20;99.90;;;;;;5030990;28;20041;-62
2023/10/17 09:50:24;;;;;;;6.10;2.05;;;10.30;99.90;;;;;;5031008;28;20483;-61
2023/10/17 09:52:54;;;;;;;5.43;1.88;;;10.40;99.90;;;;;;5029932;28;20050;-61
2023/10/17 09:55:23;;;;;;;10.55;3.28;;;10.40;99.90;;;;;;5064404;28;20563;-61
2023/10/17 09:57:59;;;;;;;5.10;1.70;;;10.50;99.90;;;;;;5031167;28;20446;-61
2023/10/17 10:00:54;;;;;;;8.90;1.75;;;10.50;99.90;;;;;;5031425;28;20044;-61
2023/10/17 10:03:24;;;;;;;5.57;2.00;;;10.60;99.90;;;;;;5031063;28;20045;-61
2023/10/17 10:05:53;;;;;;;9.13;4.47;;;10.70;99.90;;;;;;5030041;28;20132;-62
2023/10/17 10:08:33;;;;;;;8.32;2.00;;;10.70;99.90;;;;;;5030682;28;20045;-62
2023/10/17 10:11:00;;;;;;;5.32;1.50;;;10.80;99.90;;;;;;5031038;28;20087;-61
2023/10/17 10:13:26;;;;;;;4.40;1.52;;;10.80;99.90;;;;;;5013148;28;20604;-61
2023/10/17 10:16:04;;;;;;;4.93;1.00;;;10.90;99.90;;;;;;5030977;28;20235;-62
2023/10/17 10:18:35;;;;;;;4.07;1.35;;;11.00;99.90;;;;;;5031700;28;20060;-62
2023/10/17 10:21:07;;;;;;;5.18;1.67;;;11.00;99.90;;;;;;5033753;28;20490;-61
2023/10/17 10:23:35;;;;;;;5.88;1.70;;;11.00;99.90;;;;;;5037285;28;20087;-61
2023/10/17 10:26:26;;;;;;;4.95;1.85;;;11.10;99.90;;;;;;5054065;28;20120;-61
2023/10/17 10:28:52;;;;;;;4.50;1.27;;;11.10;99.90;;;;;;5034518;28;20053;-61
2023/10/17 10:31:27;;;;;;;5.95;1.80;;;11.10;99.90;;;;;;5037246;28;20045;-62
2023/10/17 10:33:54;;;;;;;6.63;2.15;;;11.10;99.90;;;;;;5036484;28;20049;-62
2023/10/17 10:36:22;;;;;;;4.18;1.58;;;11.10;99.90;;;;;;5037066;28;20042;-61
2023/10/17 10:38:47;;;;;;;3.45;1.40;;;11.20;99.90;;;;;;5037079;28;20049;-61
2023/10/17 10:41:15;;;;;;;5.82;1.55;;;11.20;99.90;;;;;;5036310;28;20041;-61
2023/10/17 10:43:41;;;;;;;5.20;1.67;;;11.20;99.90;;;;;;5037063;28;20098;-61
2023/10/17 10:46:08;;;;;;;4.57;1.70;;;11.20;99.90;;;;;;5038259;28;20041;-62
2023/10/17 10:48:34;;;;;;;5.70;1.83;;;11.30;99.90;;;;;;5036388;28;20049;-61
2023/10/17 10:51:01;;;;;;;5.30;1.40;;;11.40;99.90;;;;;;5038243;28;20080;-62
2023/10/17 10:53:35;;;;;;;4.30;1.55;;;11.40;99.90;;;;;;5038194;28;20136;-62
2023/10/17 10:56:09;;;;;;;3.83;1.65;;;11.40;99.90;;;;;;5070214;28;20037;-62
2023/10/17 10:58:53;;;;;;;18.60;8.55;;;11.50;99.90;;;;;;5070439;28;20096;-62
2023/10/17 11:01:20;;;;;;;7.78;3.75;;;11.50;99.90;;;;;;5070167;28;20045;-61
2023/10/17 11:03:47;;;;;;;7.38;2.90;;;11.50;99.90;;;;;;5037319;28;20049;-61
2023/10/17 11:06:14;;;;;;;5.07;2.25;;;11.50;99.90;;;;;;5038167;28;20094;-61
2023/10/17 11:08:43;;;;;;;5.15;2.13;;;11.60;99.90;;;;;;5036766;28;20067;-62
2023/10/17 11:11:10;;;;;;;6.45;2.38;;;11.60;99.90;;;;;;5035863;28;20049;-61
2023/10/17 11:13:57;;;;;;;6.50;2.40;;;11.70;99.90;;;;;;5036660;28;20049;-62
2023/10/17 11:16:26;;;;;;;10.50;4.60;;;11.80;99.90;;;;;;5036362;28;20048;-61
2023/10/17 11:18:53;;;;;;;5.20;1.90;;;11.90;99.90;;;;;;5036728;28;20045;-62
2023/10/17 11:21:21;;;;;;;13.30;8.10;;;11.90;99.90;;;;;;5036677;28;20041;-61
2023/10/17 11:23:52;;;;;;;5.22;2.40;;;11.90;99.90;;;;;;5052511;28;20405;-61
2023/10/17 11:26:25;;;;;;;6.97;3.53;;;11.90;99.90;;;;;;5070107;28;20409;-61
2023/10/17 11:28:52;;;;;;;23.73;14.77;;;11.80;99.90;;;;;;5036619;28;20076;-61
2023/10/17 11:31:24;;;;;;;14.00;7.50;;;11.80;99.90;;;;;;5035853;28;20045;-61
2023/10/17 11:33:59;;;;;;;7.35;3.42;;;11.70;99.90;;;;;;5066975;28;20045;-61
2023/10/17 11:36:35;;;;;;;6.03;2.70;;;11.70;99.90;;;;;;5033439;28;20494;-61
2023/10/17 11:39:05;;;;;;;9.40;4.68;;;11.60;99.90;;;;;;5032986;28;20054;-61
2023/10/17 11:41:39;;;;;;;8.45;2.80;;;11.60;99.90;;;;;;5034453;28;20044;-61
2023/10/17 11:44:05;;;;;;;6.38;3.42;;;11.70;99.90;;;;;;5033541;28;20128;-61
2023/10/17 11:46:32;;;;;;;6.32;2.42;;;11.70;99.90;;;;;;5055187;28;20049;-64
2023/10/17 11:49:30;;;;;;;8.73;4.30;;;11.80;99.90;;;;;;5063626;28;20044;-62
2023/10/17 11:52:10;;;;;;;12.68;7.75;;;11.80;99.90;;;;;;5074063;28;20063;-62
2023/10/17 11:55:01;;;;;;;14.95;8.88;;;11.90;99.90;;;;;;5062087;28;20512;-64
2023/10/17 11:57:28;;;;;;;9.95;7.00;;;11.90;99.90;;;;;;5055067;28;20476;-62
2023/10/17 11:59:57;;;;;;;6.13;2.88;;;11.90;99.90;;;;;;5057420;28;20123;-62
2023/10/17 12:02:23;;;;;;;14.45;6.70;;;12.00;99.90;;;;;;5051317;28;20379;-62
2023/10/17 12:04:49;;;;;;;14.50;8.32;;;12.00;99.90;;;;;;5050813;28;20398;-62
2023/10/17 12:07:15;;;;;;;9.32;4.43;;;12.00;99.90;;;;;;5051282;28;20128;-63
2023/10/17 12:09:41;;;;;;;15.95;7.82;;;12.10;99.90;;;;;;5051563;28;20072;-62
2023/10/17 12:12:07;;;;;;;8.43;3.35;;;12.00;99.90;;;;;;5049810;28;20045;-62
2023/10/17 12:14:36;;;;;;;10.82;3.60;;;11.90;99.90;;;;;;5052207;28;20409;-62
2023/10/17 12:17:02;;;;;;;8.98;3.00;;;11.90;99.90;;;;;;5049626;28;20455;-62
2023/10/17 12:19:28;;;;;;;11.95;3.17;;;11.80;99.90;;;;;;5048504;28;20052;-62
2023/10/17 12:21:55;;;;;;;5.65;1.88;;;11.80;99.90;;;;;;5050940;28;20099;-62
2023/10/17 12:24:28;;;;;;;8.73;3.47;;;11.90;99.90;;;;;;5053985;28;20371;-62
2023/10/17 12:26:55;;;;;;;8.85;3.17;;;11.90;99.90;;;;;;5058381;28;20692;-63
2023/10/17 12:29:28;;;;;;;10.50;5.25;;;12.00;99.90;;;;;;5041939;28;20445;-63
2023/10/17 12:31:57;;;;;;;8.57;4.22;;;12.00;99.90;;;;;;5055037;28;20478;-63
2023/10/17 12:34:23;;;;;;;6.75;2.42;;;12.00;99.90;;;;;;5066101;28;20382;-62
2023/10/17 12:36:49;;;;;;;8.02;3.20;;;12.00;99.90;;;;;;5050892;28;20049;-63
2023/10/17 12:39:16;;;;;;;5.38;2.28;;;12.10;99.90;;;;;;5062813;28;20037;-62
2023/10/17 12:41:44;;;;;;;10.82;5.10;;;12.10;99.90;;;;;;5067047;28;20481;-63
2023/10/17 12:44:09;;;;;;;9.32;4.88;;;12.10;99.90;;;;;;5063334;28;20109;-63
2023/10/17 12:46:35;;;;;;;6.10;2.60;;;12.00;99.90;;;;;;5054523;28;20037;-62
2023/10/17 12:49:01;;;;;;;9.90;4.75;;;12.00;99.90;;;;;;5063336;28;20075;-63
2023/10/17 12:51:27;;;;;;;4.78;2.30;;;12.00;99.90;;;;;;5057653;28;20100;-62
2023/10/17 12:53:54;;;;;;;9.23;2.38;;;12.00;99.90;;;;;;5064080;28;20045;-62
2023/10/17 12:56:20;;;;;;;7.20;2.90;;;12.00;99.90;;;;;;5060118;28;20044;-62
2023/10/17 12:58:47;;;;;;;4.93;2.13;;;11.90;99.90;;;;;;5064745;28;20045;-63
2023/10/17 13:01:13;;;;;;;7.30;2.10;;;11.90;99.90;;;;;;5053741;28;20036;-63
2023/10/17 13:03:39;;;;;;;18.17;8.57;;;11.80;99.90;;;;;;5052743;28;20060;-62
2023/10/17 13:06:05;;;;;;;20.10;10.20;;;11.80;99.90;;;;;;5050993;28;20090;-63
2023/10/17 13:08:31;;;;;;;13.60;7.32;;;11.80;99.90;;;;;;5051388;28;21557;-62
2023/10/17 13:10:57;;;;;;;16.33;6.47;;;11.90;99.90;;;;;;5060856;28;20477;-63
2023/10/17 13:13:24;;;;;;;13.23;5.35;;;11.90;99.90;;;;;;5053014;28;20037;-63
2023/10/17 13:15:49;;;;;;;19.80;9.25;;;11.90;99.90;;;;;;5058211;28;20040;-63
2023/10/17 13:18:16;;;;;;;18.90;7.47;;;11.90;99.90;;;;;;5049097;28;20575;-62
2023/10/17 13:20:53;;;;;;;7.30;3.80;;;11.80;99.90;;;;;;5060093;28;20040;-63
2023/10/17 13:23:20;;;;;;;5.85;2.10;;;11.80;99.90;;;;;;5085566;28;20053;-63
2023/10/17 13:25:46;;;;;;;5.53;1.55;;;11.90;99.90;;;;;;5046934;28;20056;-62
2023/10/17 13:28:12;;;;;;;5.68;2.60;;;11.90;99.90;;;;;;5050331;28;20049;-62
2023/10/17 13:30:38;;;;;;;4.50;1.80;;;11.80;99.90;;;;;;5047464;28;20048;-62
2023/10/17 13:33:04;;;;;;;5.97;1.80;;;11.90;99.90;;;;;;5054655;28;20075;-62
2023/10/17 13:35:30;;;;;;;5.07;1.60;;;11.90;99.90;;;;;;5058053;28;20041;-62
2023/10/17 13:37:58;;;;;;;5.30;1.83;;;11.90;99.90;;;;;;5037944;28;20086;-63
2023/10/17 13:40:24;;;;;;;8.10;1.83;;;11.90;99.90;;;;;;5048649;28;20539;-63
2023/10/17 13:42:51;;;;;;;4.55;1.50;;;11.80;99.90;;;;;;5064726;28;20048;-62
2023/10/17 13:45:21;;;;;;;3.58;1.48;;;11.90;99.90;;;;;;5047719;28;20482;-62
2023/10/17 13:47:51;;;;;;;5.10;1.33;;;11.80;99.90;;;;;;5048388;28;20053;-63
2023/10/17 13:50:19;;;;;;;6.60;1.92;;;11.80;99.90;;;;;;5045861;28;20239;-62
2023/10/17 13:52:54;;;;;;;9.52;1.63;;;11.80;99.90;;;;;;5055114;28;20068;-63
2023/10/17 13:55:26;;;;;;;5.00;1.73;;;11.80;99.90;;;;;;5050638;28;20518;-64
2023/10/17 13:58:00;;;;;;;5.57;1.83;;;11.70;99.90;;;;;;5048502;28;20592;-63
2023/10/17 14:00:31;;;;;;;;;;;11.80;99.90;;;;;;5047862;28;20049;-63
2023/10/17 14:02:57;;;;;;;6.82;2.50;;;11.70;99.90;;;;;;5081186;28;19927;-63
2023/10/17 14:05:23;;;;;;;4.72;1.60;;;11.80;99.90;;;;;;5050505;28;20052;-63
2023/10/17 14:07:50;;;;;;;4.65;1.90;;;11.70;99.90;;;;;;5055386;28;20072;-63
2023/10/17 14:10:15;;;;;;;3.83;1.67;;;11.70;99.90;;;;;;5049063;28;20037;-63
2023/10/17 14:12:41;;;;;;;4.10;1.77;;;11.70;99.90;;;;;;5047752;28;20048;-62
2023/10/17 14:15:08;;;;;;;4.30;1.77;;;11.70;99.90;;;;;;5039618;28;20463;-63
2023/10/17 14:17:34;;;;;;;6.38;2.90;;;11.60;99.90;;;;;;5044223;28;20075;-63
2023/10/17 14:20:06;;;;;;;7.97;1.80;;;11.70;99.90;;;;;;5052570;28;20094;-63
2023/10/17 14:22:38;;;;;;;4.32;2.05;;;11.70;99.90;;;;;;5058216;28;20383;-62
2023/10/17 14:25:07;;;;;;;4.95;1.70;;;11.70;99.90;;;;;;5028066;28;20105;-63
2023/10/17 14:27:33;;;;;;;6.38;2.50;;;11.60;99.90;;;;;;5063531;28;20045;-63
2023/10/17 14:29:59;;;;;;;3.90;1.67;;;11.60;99.90;;;;;;5056488;28;20412;-62
2023/10/17 14:32:27;;;;;;;4.30;1.77;;;11.70;99.90;;;;;;5064426;28;20486;-63
2023/10/17 14:34:53;;;;;;;5.20;1.98;;;11.60;99.90;;;;;;5058045;28;20041;-63
2023/10/17 14:37:20;;;;;;;4.85;2.22;;;11.60;99.90;;;;;;5053654;28;20043;-62
2023/10/17 14:39:46;;;;;;;7.00;1.92;;;11.60;99.90;;;;;;5060334;28;20052;-63
2023/10/17 14:42:13;;;;;;;5.28;1.90;;;11.60;99.90;;;;;;5049512;28;20044;-63
2023/10/17 14:44:41;;;;;;;6.13;1.75;;;11.60;99.90;;;;;;5067977;28;20064;-62
2023/10/17 14:47:07;;;;;;;7.38;2.33;;;11.60;99.90;;;;;;5047561;28;20055;-63
2023/10/17 14:49:33;;;;;;;5.80;2.47;;;11.60;99.90;;;;;;5059989;28;20044;-62
2023/10/17 14:51:58;;;;;;;5.35;2.22;;;11.50;99.90;;;;;;5046426;28;20450;-63
2023/10/17 14:54:25;;;;;;;5.75;2.30;;;11.50;99.90;;;;;;5047258;28;20469;-63
2023/10/17 14:56:51;;;;;;;7.10;2.75;;;11.50;99.90;;;;;;5047747;28;20056;-63
2023/10/17 14:59:17;;;;;;;8.95;3.55;;;11.50;99.90;;;;;;5047592;28;20084;-63
2023/10/17 15:01:43;;;;;;;11.88;5.10;;;11.50;99.90;;;;;;5053032;28;20644;-63
2023/10/17 15:04:10;;;;;;;8.20;4.28;;;11.50;99.90;;;;;;5067660;28;20075;-63
2023/10/17 15:06:39;;;;;;;7.72;2.70;;;11.40;99.90;;;;;;5067528;28;20466;-63
2023/10/17 15:09:06;;;;;;;6.72;2.97;;;11.40;99.90;;;;;;5070859;28;20044;-63